createdAt,value
2023-05-22T00:12:08.438Z,96953.69
2023-05-22T00:14:48.551Z,96962.03
2023-05-22T00:17:21.494Z,96944.13
2023-05-22T00:22:49.632Z,96946.16
2023-05-22T00:28:06.685Z,96927.00
2023-05-22T00:30:33.951Z,96928.84
2023-05-22T00:35:42.857Z,96927.63
2023-05-22T00:38:10.272Z,96919.28
2023-05-22T00:40:38.558Z,96927.63
2023-05-22T00:43:09.280Z,96911.31
2023-05-22T00:45:40.334Z,96909.91
2023-05-22T00:48:10.884Z,96929.44
2023-05-22T00:50:39.135Z,96923.94
2023-05-22T00:53:07.547Z,96910.09
2023-05-22T00:55:35.145Z,96895.81
2023-05-22T00:58:08.427Z,96901.94
2023-05-22T01:00:39.265Z,96907.66
2023-05-22T01:03:10.537Z,96922.72
2023-05-22T01:05:41.124Z,96910.53
2023-05-22T01:08:10.229Z,96907.91
2023-05-22T01:10:39.158Z,96912.59
2023-05-22T01:13:28.040Z,96904.69
2023-05-22T01:16:04.484Z,96922.16
2023-05-22T01:19:03.156Z,96921.34
2023-05-22T01:21:46.944Z,96893.66
2023-05-22T01:25:13.262Z,96900.78
2023-05-22T01:27:58.955Z,96908.94
2023-05-22T01:30:35.398Z,96910.19
2023-05-22T01:33:04.125Z,96898.78
2023-05-22T01:35:32.020Z,96894.69
2023-05-22T01:38:02.503Z,96907.75
2023-05-22T01:40:30.221Z,96902.84
2023-05-22T01:42:57.873Z,96892.25
2023-05-22T01:45:25.161Z,96892.25
2023-05-22T01:47:52.525Z,96894.31
2023-05-22T01:50:20.600Z,96893.50
2023-05-22T01:53:09.717Z,96887.00
2023-05-22T01:55:56.101Z,96907.34
2023-05-22T01:58:43.504Z,96893.50
2023-05-22T02:01:14.553Z,96888.63
2023-05-22T02:03:43.266Z,96897.19
2023-05-22T02:06:15.880Z,96886.97
2023-05-22T02:08:43.537Z,96883.72
2023-05-22T02:11:11.994Z,96884.13
2023-05-22T02:13:39.374Z,96884.97
2023-05-22T02:16:07.517Z,96882.31
2023-05-22T02:18:36.289Z,96886.78
2023-05-22T02:21:03.699Z,96881.06
2023-05-22T02:23:31.365Z,96896.38
2023-05-22T02:25:58.394Z,96894.31
2023-05-22T02:28:25.655Z,96880.06
2023-05-22T02:30:53.469Z,96879.66
2023-05-22T02:33:21.026Z,96861.34
2023-05-22T02:35:48.321Z,96873.53
2023-05-22T02:38:18.961Z,96859.31
2023-05-22T02:40:47.719Z,96870.28
2023-05-22T02:43:17.720Z,96870.31
2023-05-22T02:45:44.853Z,96864.41
2023-05-22T02:48:12.212Z,96860.50
2023-05-22T02:50:42.498Z,96876.41
2023-05-22T02:53:10.034Z,96856.03
2023-05-22T02:55:37.448Z,96860.31
2023-05-22T02:58:04.988Z,96863.38
2023-05-22T03:00:32.520Z,96864.38
2023-05-22T03:03:00.081Z,96862.75
2023-05-22T03:05:27.204Z,96862.53
2023-05-22T03:07:54.688Z,96867.81
2023-05-22T03:10:22.660Z,96862.94
2023-05-22T03:12:52.249Z,96868.41
2023-05-22T03:15:19.867Z,96863.94
2023-05-22T03:17:46.951Z,96865.16
2023-05-22T03:20:17.278Z,96859.66
2023-05-22T03:22:45.161Z,96868.22
2023-05-22T03:27:54.406Z,96860.66
2023-05-22T03:30:21.922Z,96881.63
2023-05-22T03:32:49.312Z,96865.53
2023-05-22T03:35:20.046Z,96868.59
2023-05-22T03:37:47.471Z,96879.22
2023-05-22T03:40:17.875Z,96880.81
2023-05-22T03:42:44.984Z,96889.09
2023-05-22T03:45:13.137Z,96881.13
2023-05-22T03:47:40.294Z,96871.75
2023-05-22T03:50:08.568Z,96888.44
2023-05-22T03:52:36.903Z,96891.53
2023-05-22T03:55:04.427Z,96865.72
2023-05-22T03:57:32.087Z,96880.59
2023-05-22T04:00:06.627Z,96875.50
2023-05-22T04:02:40.396Z,96875.94
2023-05-22T04:05:09.197Z,96869.44
2023-05-22T04:07:36.777Z,96867.03
2023-05-22T04:10:05.355Z,96883.34
2023-05-22T04:12:33.377Z,96882.72
2023-05-22T04:15:03.347Z,96892.69
2023-05-22T04:17:36.727Z,96873.53
2023-05-22T04:20:05.426Z,96874.38
2023-05-22T04:22:34.128Z,96878.44
2023-05-22T04:25:01.332Z,96878.66
2023-05-22T04:27:32.560Z,96879.44
2023-05-22T04:30:00.437Z,96892.28
2023-05-22T04:32:28.386Z,96873.34
2023-05-22T04:34:59.259Z,96880.84
2023-05-22T04:37:29.231Z,96900.56
2023-05-22T04:40:05.723Z,96873.50
2023-05-22T04:42:35.049Z,96893.63
2023-05-22T04:45:02.285Z,96879.94
2023-05-22T04:47:33.899Z,96886.44
2023-05-22T04:50:05.005Z,96880.28
2023-05-22T04:52:34.576Z,96890.66
2023-05-22T04:55:03.306Z,96883.94
2023-05-22T04:57:34.046Z,96876.09
2023-05-22T05:00:05.096Z,96879.19
2023-05-22T05:02:35.038Z,96897.94
2023-05-22T05:05:05.704Z,96882.25
2023-05-22T05:07:33.853Z,96897.31
2023-05-22T05:10:01.606Z,96885.38
2023-05-22T05:12:28.923Z,96889.44
2023-05-22T05:14:57.310Z,96890.25
2023-05-22T05:17:34.411Z,96887.19
2023-05-22T05:22:45.860Z,96893.25
2023-05-22T05:27:55.757Z,96880.56
2023-05-22T05:30:25.168Z,96889.28
2023-05-22T05:33:01.488Z,96890.31
2023-05-22T05:35:28.998Z,96884.53
2023-05-22T05:40:45.527Z,96893.97
2023-05-22T05:45:58.770Z,96890.81
2023-05-22T05:48:27.162Z,96889.09
2023-05-22T05:50:59.644Z,96891.03
2023-05-22T05:56:23.885Z,96892.69
2023-05-22T06:01:41.622Z,96895.16
2023-05-22T06:09:37.819Z,96884.38
2023-05-22T06:14:50.748Z,96894.84
2023-05-22T06:20:07.011Z,96892.06
2023-05-22T06:30:47.439Z,96896.00
2023-05-22T06:33:22.637Z,96905.66
2023-05-22T06:44:09.706Z,96900.41
2023-05-22T06:49:10.914Z,96907.78
2023-05-22T06:51:38.009Z,96910.44
2023-05-22T06:57:04.056Z,96910.28
2023-05-22T07:05:01.275Z,96914.09
2023-05-22T07:10:11.413Z,96912.88
2023-05-22T07:12:40.189Z,96914.34
2023-05-22T07:15:14.876Z,96927.88
2023-05-22T07:20:32.412Z,96914.13
2023-05-22T07:31:16.105Z,96917.13
2023-05-22T07:39:07.053Z,96921.34
2023-05-22T07:52:25.240Z,96920.16
2023-05-22T08:30:25.797Z,96927.97
2023-05-22T09:10:50.753Z,96921.66
2023-05-22T09:37:43.459Z,96899.63
2023-05-22T11:10:54.316Z,96881.19
2023-05-22T13:33:20.245Z,96924.22
2023-05-22T13:41:12.649Z,96919.94
2023-05-22T13:49:09.112Z,96952.09
2023-05-22T13:51:36.555Z,96931.75
2023-05-22T13:59:25.956Z,96945.00
2023-05-22T14:01:53.767Z,96948.13
2023-05-22T14:04:21.400Z,96941.19
2023-05-22T14:06:51.002Z,96940.44
2023-05-22T14:09:18.260Z,96916.88
2023-05-22T14:11:45.527Z,96904.06
2023-05-22T14:14:12.404Z,96902.53
2023-05-22T14:16:39.720Z,96904.81
2023-05-22T14:24:37.353Z,96926.69
2023-05-22T14:27:04.355Z,96935.34
2023-05-22T14:37:58.118Z,96952.19
2023-05-22T14:40:25.163Z,96954.47
2023-05-22T14:42:54.406Z,96957.69
2023-05-22T14:48:03.119Z,96956.53
2023-05-22T14:50:31.694Z,96934.13
2023-05-22T15:01:03.212Z,96923.34
2023-05-22T15:03:33.262Z,96912.97
2023-05-22T15:14:00.573Z,96887.41
2023-05-22T15:21:51.184Z,96884.69
2023-05-22T15:27:05.071Z,96881.75
2023-05-22T15:29:32.235Z,96882.88
2023-05-22T15:34:50.621Z,96876.06
2023-05-22T15:37:17.450Z,96879.72
2023-05-22T16:18:34.383Z,96857.59
2023-05-22T16:21:01.393Z,96871.56
2023-05-22T16:23:28.497Z,96857.06
2023-05-22T16:31:24.714Z,96856.53
2023-05-22T16:33:53.309Z,96864.06
2023-05-22T16:36:20.485Z,96858.66
2023-05-22T16:38:49.700Z,96858.66
2023-05-22T16:44:05.811Z,96855.38
2023-05-22T16:49:15.567Z,96855.94
2023-05-22T16:54:24.499Z,96849.50
2023-05-22T16:59:33.980Z,96846.28
2023-05-22T17:02:02.042Z,96848.41
2023-05-22T17:04:32.465Z,96849.47
2023-05-22T17:06:59.776Z,96855.38
2023-05-22T17:09:30.049Z,96853.25
2023-05-22T17:11:57.632Z,96872.34
2023-05-22T17:14:26.569Z,96858.63
2023-05-22T17:16:55.858Z,96862.28
2023-05-22T17:19:24.130Z,96859.94
2023-05-22T17:21:52.006Z,96872.72
2023-05-22T17:26:55.567Z,96889.09
2023-05-22T17:32:07.414Z,96870.53
2023-05-22T17:48:46.188Z,96890.75
2023-05-22T18:26:23.656Z,96971.66
2023-05-22T18:52:44.435Z,96988.38
2023-05-22T18:58:30.724Z,96996.78
2023-05-22T19:01:01.879Z,97003.47
2023-05-22T19:03:29.107Z,96987.69
2023-05-22T19:08:38.376Z,96996.22
2023-05-22T19:13:55.053Z,96992.03
2023-05-22T19:16:46.945Z,97010.09
2023-05-22T19:19:17.353Z,97001.72
2023-05-22T19:27:39.102Z,97009.97
2023-05-22T20:03:44.245Z,97054.75
2023-05-22T20:15:10.499Z,97052.78
2023-05-22T20:58:40.367Z,97048.13
2023-05-22T21:23:45.841Z,97071.78
2023-05-22T21:26:13.316Z,97081.47
2023-05-22T21:52:54.200Z,97068.97
2023-05-22T22:24:36.146Z,97081.97
2023-05-22T22:30:02.500Z,97092.19
2023-05-22T22:35:39.113Z,97069.88
2023-05-22T22:40:56.968Z,97092.94
2023-05-22T22:52:13.330Z,97079.25
2023-05-22T23:14:23.041Z,97109.03
2023-05-22T23:22:03.921Z,97122.28
2023-05-22T23:33:13.130Z,97100.88
2023-05-22T23:41:27.740Z,97118.19
2023-05-22T23:43:54.559Z,97104.31
2023-05-22T23:52:07.006Z,97104.09
2023-05-22T23:54:36.759Z,97127.56
